createdAt,value
2019-02-11T06:28:18.580Z,31.26
2019-02-11T06:31:18.471Z,31.34
2019-02-11T06:32:18.458Z,31.36
2019-02-11T06:34:18.423Z,31.56
2019-02-11T06:35:18.407Z,30.56
2019-02-11T06:37:18.387Z,30.76
2019-02-11T06:41:18.439Z,30.66
2019-02-11T06:43:18.312Z,31.76
2019-02-11T06:44:18.314Z,31.45
2019-02-11T06:46:18.282Z,31.16
2019-02-11T06:48:18.273Z,31.46
2019-02-11T06:49:18.247Z,31.76
2019-02-11T06:50:18.240Z,31.75
2019-02-11T06:51:18.306Z,31.56
2019-02-11T06:52:18.212Z,31.56
2019-02-11T06:53:18.212Z,31.56
2019-02-11T06:55:18.191Z,31.45
2019-02-11T06:57:18.160Z,31.04
2019-02-11T06:58:18.200Z,31.15
2019-02-11T06:59:18.142Z,31.54
2019-02-11T07:00:18.123Z,31.45
2019-02-11T07:01:18.131Z,31.45
2019-02-11T07:02:18.130Z,31.54
2019-02-11T07:03:18.425Z,31.54
2019-02-11T07:04:18.090Z,31.54
2019-02-11T07:16:17.965Z,32.14
2019-02-11T07:17:17.976Z,31.95
2019-02-11T07:18:17.945Z,31.75
2019-02-11T07:30:17.806Z,31.95
2019-02-11T07:31:17.831Z,31.83
2019-02-11T07:32:17.779Z,31.75
2019-02-11T07:33:17.797Z,31.64
2019-02-11T07:34:17.753Z,31.93
2019-02-11T07:35:17.759Z,31.73
2019-02-11T07:36:18.121Z,31.75
2019-02-11T07:37:17.729Z,32.14
2019-02-11T07:38:17.719Z,32.23
2019-02-11T07:39:17.741Z,32.13
2019-02-11T07:40:17.711Z,32.13
2019-02-11T07:41:18.804Z,32.14
2019-02-11T07:42:17.664Z,32.14
2019-02-11T07:43:17.648Z,32.04
2019-02-11T07:44:17.654Z,32.13
2019-02-11T07:45:17.677Z,31.83
2019-02-11T07:46:17.715Z,31.83
2019-02-11T07:47:17.607Z,31.54
2019-02-11T07:48:17.644Z,31.93
2019-02-11T07:49:17.700Z,31.83
2019-02-11T07:50:17.587Z,31.53
2019-02-11T07:51:17.561Z,31.63
2019-02-11T07:52:17.549Z,31.63
2019-02-11T07:53:17.567Z,31.53
2019-02-11T07:54:17.561Z,32.14
2019-02-11T07:55:18.464Z,31.64
2019-02-11T07:56:17.517Z,31.75
2019-02-11T07:57:17.506Z,32.14
2019-02-11T07:58:17.567Z,31.64
2019-02-11T07:59:17.487Z,31.75
2019-02-11T08:00:17.467Z,31.84
2019-02-11T08:01:17.514Z,32.04
2019-02-11T08:18:28.024Z,31.04
2019-02-11T08:19:27.992Z,31.25
2019-02-11T08:20:27.946Z,31.25
2019-02-11T08:21:27.945Z,31.25
2019-02-11T08:22:27.972Z,31.25
2019-02-11T08:23:27.907Z,30.95
2019-02-11T08:24:27.888Z,31.33
2019-02-11T08:25:27.942Z,31.25
2019-02-11T08:26:27.914Z,31.03
2019-02-11T08:27:27.866Z,31.33
2019-02-11T08:28:27.840Z,31.33
2019-02-11T08:29:27.844Z,31.34
2019-02-11T08:30:28.179Z,31.23
2019-02-11T08:31:27.846Z,31.13
2019-02-11T08:32:27.806Z,31.13
2019-02-11T08:33:27.807Z,31.73
2019-02-11T08:34:27.786Z,31.15
2019-02-11T08:35:29.000Z,31.73
2019-02-11T08:36:27.756Z,31.43
2019-02-11T08:37:27.757Z,31.54
2019-02-11T08:38:27.739Z,31.53
2019-02-11T08:39:27.739Z,31.53
2019-02-11T08:40:27.716Z,31.33
2019-02-11T08:41:28.388Z,31.33
2019-02-11T08:42:27.748Z,31.33
2019-02-11T08:43:27.678Z,31.23
2019-02-11T08:44:27.717Z,31.53
2019-02-11T08:45:27.662Z,30.73
2019-02-11T08:46:27.656Z,31.13
2019-02-11T08:47:27.655Z,31.23
2019-02-11T08:48:27.952Z,31.13
2019-02-11T08:49:27.626Z,31.13
2019-02-11T08:50:27.602Z,30.63
2019-02-11T08:51:27.599Z,31.13
2019-02-11T08:52:27.571Z,30.73
2019-02-11T08:53:27.616Z,31.43
2019-02-11T08:54:27.559Z,30.53
2019-02-11T08:55:27.537Z,31.03
2019-02-11T08:56:27.538Z,31.03
2019-02-11T08:57:27.526Z,30.92
2019-02-11T08:58:29.814Z,30.63
2019-02-11T08:59:27.561Z,30.63
2019-02-11T09:00:27.756Z,30.93
2019-02-11T09:01:27.559Z,31.13
2019-02-11T09:02:27.460Z,31.13
2019-02-11T09:03:27.454Z,31.23
2019-02-11T09:04:27.448Z,31.13
2019-02-11T09:05:27.546Z,30.82
2019-02-11T09:06:27.413Z,31.43
2019-02-11T09:07:27.417Z,31.33
2019-02-11T09:08:27.396Z,31.31
2019-02-11T09:09:27.382Z,31.12
2019-02-11T09:10:27.426Z,30.92
2019-02-11T09:11:27.373Z,31.03
2019-02-11T09:12:27.345Z,31.12
2019-02-11T09:13:27.382Z,31.21
2019-02-11T09:14:27.331Z,30.93
2019-02-11T09:15:27.323Z,31.51
2019-02-11T09:16:27.397Z,31.42
2019-02-11T09:18:27.285Z,31.21
2019-02-11T09:19:27.287Z,31.31
2019-02-11T09:20:27.262Z,30.93
2019-02-11T09:21:27.325Z,30.93
2019-02-11T09:22:28.234Z,31.43
2019-02-11T09:23:27.290Z,31.43
2019-02-11T09:24:27.216Z,31.12
2019-02-11T09:25:27.258Z,31.43
2019-02-11T09:26:27.192Z,31.01
2019-02-11T09:27:27.174Z,31.03
2019-02-11T09:28:27.178Z,30.92
2019-02-11T09:29:27.223Z,31.12
2019-02-11T09:30:27.142Z,31.12
2019-02-11T09:31:28.596Z,31.12
2019-02-11T09:32:27.170Z,31.12
2019-02-11T09:33:27.205Z,31.21
2019-02-11T09:34:27.103Z,31.31
2019-02-11T09:35:27.131Z,31.03
2019-02-11T09:36:27.076Z,31.42
2019-02-11T09:37:27.086Z,31.12
2019-02-11T09:38:27.108Z,31.43
2019-02-11T09:39:27.048Z,31.53
2019-02-11T09:40:27.057Z,31.03
2019-02-11T09:41:28.022Z,31.42
2019-02-11T09:42:27.032Z,30.83
2019-02-11T09:43:27.010Z,31.01
2019-02-11T09:44:29.592Z,30.92
2019-02-11T09:45:26.981Z,31.23
2019-02-11T09:46:26.965Z,31.21
2019-02-11T09:47:26.995Z,30.92
2019-02-11T09:48:26.963Z,30.62
2019-02-11T09:49:26.962Z,30.92
2019-02-11T09:50:26.930Z,31.01
2019-02-11T09:51:26.909Z,30.92
2019-02-11T09:52:26.937Z,31.01
2019-02-11T09:53:26.902Z,31.21
2019-02-11T09:54:27.087Z,31.21
2019-02-11T09:55:26.937Z,31.10
2019-02-11T09:56:26.858Z,31.40
2019-02-11T09:57:27.520Z,31.20
2019-02-11T09:58:27.028Z,30.62
2019-02-11T09:59:26.905Z,30.90
2019-02-11T10:00:27.851Z,30.80
2019-02-11T10:01:26.859Z,30.70
2019-02-11T10:02:26.789Z,30.70
2019-02-11T10:03:28.006Z,30.70
2019-02-11T10:04:26.764Z,30.60
2019-02-11T10:05:26.758Z,30.70
2019-02-11T10:06:26.798Z,30.70
2019-02-11T10:07:26.735Z,30.50
2019-02-11T10:08:26.728Z,30.70
2019-02-11T10:09:26.716Z,30.70
2019-02-11T10:10:26.729Z,31.20
2019-02-11T10:11:26.710Z,30.90
2019-02-11T10:12:26.688Z,31.20
2019-02-11T10:13:26.669Z,31.30
2019-02-11T10:14:26.747Z,31.21
2019-02-11T10:15:26.649Z,31.42
2019-02-11T10:16:26.688Z,31.42
2019-02-11T10:17:29.872Z,30.82
2019-02-11T10:18:26.617Z,31.01
2019-02-11T10:19:26.949Z,30.82
2019-02-11T10:20:26.646Z,31.12
2019-02-11T10:21:26.582Z,31.12
2019-02-11T10:22:26.587Z,31.10
2019-02-11T10:23:26.698Z,31.30
2019-02-11T10:24:26.628Z,31.20
2019-02-11T10:25:26.567Z,31.40
2019-02-11T10:26:26.524Z,31.20
2019-02-11T10:27:26.532Z,31.20
2019-02-11T10:28:26.514Z,31.20
2019-02-11T10:29:26.619Z,31.20
2019-02-11T10:30:26.508Z,31.10
2019-02-11T10:31:26.473Z,31.40
2019-02-11T10:32:26.461Z,31.40
2019-02-11T10:33:26.470Z,31.40
2019-02-11T10:34:26.509Z,31.40
2019-02-11T10:35:26.615Z,31.40
2019-02-11T10:36:26.494Z,31.20
2019-02-11T10:37:26.407Z,31.10
2019-02-11T10:38:27.635Z,31.20
2019-02-11T10:40:26.376Z,31.40
2019-02-11T10:41:26.369Z,31.10
2019-02-11T10:42:26.462Z,31.40
2019-02-11T10:43:26.406Z,31.20
2019-02-11T10:44:26.348Z,30.90
2019-02-11T10:45:26.353Z,31.20
2019-02-11T10:46:26.330Z,31.40
2019-02-11T10:47:26.322Z,31.40
2019-02-11T10:48:26.333Z,30.80
2019-02-11T10:49:26.290Z,30.90
2019-02-11T10:50:26.308Z,31.01
2019-02-11T10:51:26.250Z,30.92
2019-02-11T10:52:26.243Z,31.01
2019-02-11T10:53:26.230Z,30.82
2019-02-11T10:54:26.498Z,30.90
2019-02-11T10:55:26.215Z,30.82
2019-02-11T10:56:26.210Z,31.00
2019-02-11T10:57:26.193Z,30.82
2019-02-11T10:58:26.221Z,30.92
2019-02-11T10:59:26.179Z,30.80
2019-02-11T11:00:27.284Z,31.01
2019-02-11T11:01:26.195Z,31.40
2019-02-11T11:02:26.143Z,31.10
2019-02-11T11:03:26.139Z,31.40
2019-02-11T11:04:26.146Z,31.40
2019-02-11T11:05:26.122Z,31.30
2019-02-11T11:06:26.096Z,31.00
2019-02-11T11:07:26.188Z,31.10
2019-02-11T11:08:26.153Z,31.40
2019-02-11T11:09:26.051Z,31.00
2019-02-11T11:10:26.073Z,31.20
2019-02-11T11:11:26.064Z,31.40
2019-02-11T11:12:26.019Z,31.20
2019-02-11T11:13:26.052Z,31.20
2019-02-11T11:14:26.086Z,31.40
2019-02-11T11:15:25.998Z,31.40
2019-02-11T11:16:29.684Z,31.30
2019-02-11T11:17:26.009Z,31.40
2019-02-11T11:18:25.953Z,30.80
2019-02-11T11:19:25.990Z,31.50
2019-02-11T11:20:25.935Z,31.50
2019-02-11T11:21:25.933Z,31.30
2019-02-11T11:22:25.988Z,31.50
2019-02-11T11:23:25.969Z,31.20
2019-02-11T11:24:25.890Z,31.70
2019-02-11T11:25:25.913Z,31.18
2019-02-11T11:26:25.955Z,31.20
2019-02-11T11:27:25.856Z,31.30
2019-02-11T11:28:25.862Z,31.48
2019-02-11T11:29:25.855Z,31.90
2019-02-11T11:30:25.861Z,31.90
2019-02-11T11:31:25.815Z,31.80
2019-02-11T11:32:25.934Z,31.80
2019-02-11T11:33:27.378Z,31.60
2019-02-11T11:34:25.801Z,31.89
2019-02-11T11:35:25.781Z,31.70
2019-02-11T11:36:25.748Z,32.29
2019-02-11T11:37:25.761Z,32.18
2019-02-11T11:38:25.738Z,32.20
2019-02-11T11:39:25.735Z,32.08
2019-02-11T11:40:25.713Z,32.59
2019-02-11T11:41:25.708Z,32.29
2019-02-11T11:42:25.693Z,32.40
2019-02-11T11:43:25.681Z,32.00
2019-02-11T11:44:25.762Z,32.40
2019-02-11T11:45:25.666Z,32.59
2019-02-11T11:46:25.675Z,32.40
2019-02-11T11:47:25.646Z,32.80
2019-02-11T11:48:25.621Z,32.40
2019-02-11T11:49:25.632Z,32.29
2019-02-11T11:50:25.762Z,31.98
2019-02-11T11:51:25.939Z,32.28
2019-02-11T11:52:25.670Z,33.00
2019-02-11T11:53:25.794Z,32.18
2019-02-11T11:54:25.551Z,31.68
2019-02-11T11:55:25.555Z,31.68
2019-02-11T11:56:25.535Z,32.29
2019-02-11T11:57:25.592Z,31.98
2019-02-11T11:58:26.998Z,31.78
2019-02-11T11:59:25.522Z,31.98
2019-02-11T12:00:25.498Z,32.08
2019-02-11T12:01:25.493Z,31.98
2019-02-11T12:02:25.479Z,31.78
2019-02-11T12:03:25.471Z,31.68
2019-02-11T12:04:25.461Z,31.68
2019-02-11T12:05:25.515Z,31.59
2019-02-11T12:06:25.901Z,31.48
2019-02-11T12:07:25.447Z,31.48
2019-02-11T12:08:25.446Z,31.98
2019-02-11T12:09:25.393Z,31.78
2019-02-11T12:10:25.595Z,31.98
2019-02-11T12:11:25.382Z,31.68
2019-02-11T12:12:25.367Z,31.98
2019-02-11T12:13:25.353Z,31.98
2019-02-11T12:14:25.336Z,32.28
2019-02-11T12:15:25.340Z,32.08
2019-02-11T12:16:25.312Z,31.98
2019-02-11T12:17:25.327Z,31.89
2019-02-11T12:18:25.280Z,31.89
2019-02-11T12:19:25.319Z,31.98
2019-02-11T12:20:25.281Z,31.68
2019-02-11T12:21:25.263Z,31.89
2019-02-11T12:22:25.251Z,31.48
2019-02-11T12:23:25.241Z,31.39
2019-02-11T12:24:25.295Z,32.18
2019-02-11T12:25:25.214Z,30.99
2019-02-11T12:26:25.211Z,30.99
2019-02-11T12:27:25.258Z,31.59
2019-02-11T12:28:25.169Z,31.89
2019-02-11T12:29:25.180Z,31.89
2019-02-11T12:30:25.212Z,31.89
2019-02-11T12:31:25.138Z,32.08
2019-02-11T12:32:25.145Z,31.68
2019-02-11T12:33:25.134Z,32.08
2019-02-11T12:34:25.127Z,31.68
2019-02-11T12:35:25.177Z,32.08
2019-02-11T12:36:25.088Z,31.60
2019-02-11T12:37:25.070Z,32.08
2019-02-11T12:38:25.085Z,31.89
2019-02-11T12:39:25.054Z,31.68
2019-02-11T12:40:25.101Z,31.78
2019-02-11T12:41:25.047Z,32.10
2019-02-11T12:42:25.011Z,32.00
2019-02-11T12:43:25.022Z,32.20
2019-02-11T12:44:24.996Z,31.80
2019-02-11T12:45:25.016Z,31.80
2019-02-11T12:46:24.979Z,32.00
2019-02-11T12:47:24.960Z,32.70
2019-02-11T12:48:24.997Z,32.20
2019-02-11T12:49:24.957Z,32.29
2019-02-11T12:50:24.941Z,32.40
2019-02-11T12:51:24.929Z,32.70
2019-02-11T12:52:24.904Z,32.40
2019-02-11T12:53:24.889Z,32.70
2019-02-11T12:54:25.855Z,32.40
2019-02-11T12:55:24.875Z,32.40
2019-02-11T12:56:24.869Z,32.29
2019-02-11T12:57:24.858Z,32.22
2019-02-11T12:58:26.438Z,31.92
2019-02-11T12:59:24.828Z,31.90
2019-02-11T13:00:24.851Z,31.51
2019-02-11T13:01:24.809Z,31.70
2019-02-11T13:02:24.804Z,31.81
2019-02-11T13:03:24.791Z,32.01
2019-02-11T13:04:24.786Z,31.81
2019-02-11T13:05:43.147Z,31.92
2019-02-11T13:06:46.729Z,32.71
2019-02-11T13:07:46.645Z,32.22
2019-02-11T13:08:46.625Z,32.61
2019-02-11T13:09:46.614Z,32.22
2019-02-11T13:10:46.629Z,32.01
2019-02-11T13:11:46.592Z,32.22
2019-02-11T13:12:46.558Z,32.61
2019-02-11T13:13:46.662Z,32.41
2019-02-11T13:14:46.563Z,32.11
2019-02-11T13:16:00.015Z,32.22
2019-02-11T13:17:15.524Z,32.81
2019-02-11T13:18:31.948Z,32.61
2019-02-11T13:19:31.642Z,32.61
2019-02-11T13:20:31.657Z,32.61
2019-02-11T13:21:31.606Z,32.61
2019-02-11T13:22:31.608Z,32.61
2019-02-11T13:23:31.606Z,32.41
2019-02-11T13:24:31.614Z,32.81
2019-02-11T13:25:31.581Z,32.41
2019-02-11T13:26:31.573Z,32.41
2019-02-11T13:27:31.546Z,32.81
2019-02-11T13:28:31.538Z,32.91
2019-02-11T13:29:31.533Z,32.41
2019-02-11T13:30:31.535Z,32.61
2019-02-11T13:31:31.530Z,32.81
2019-02-11T13:32:31.518Z,32.41
2019-02-11T13:33:31.469Z,32.61
2019-02-11T13:34:31.469Z,32.41
2019-02-11T13:35:31.502Z,32.81
2019-02-11T13:36:31.457Z,32.81
2019-02-11T13:37:31.443Z,32.31
2019-02-11T13:38:31.514Z,31.71
2019-02-11T13:39:31.473Z,31.61
2019-02-11T13:40:31.405Z,31.81
2019-02-11T13:41:34.053Z,31.81
2019-02-11T13:42:31.393Z,32.00
2019-02-11T13:43:31.378Z,31.71
2019-02-11T13:44:31.377Z,31.61
2019-02-11T13:45:31.372Z,31.61
2019-02-11T13:46:31.348Z,31.51
2019-02-11T14:01:37.659Z,32.31
2019-02-11T14:02:37.652Z,32.13
2019-02-11T14:03:37.649Z,32.43
2019-02-11T14:04:37.651Z,32.71
2019-02-11T14:05:37.624Z,32.41
2019-02-11T14:06:37.596Z,32.83
2019-02-11T14:07:37.656Z,32.43
2019-02-11T14:08:37.612Z,32.83
2019-02-11T14:09:37.588Z,32.83
2019-02-11T14:10:37.555Z,32.93
2019-02-11T14:11:37.598Z,32.83
2019-02-11T14:12:37.528Z,32.93
2019-02-11T14:13:37.535Z,32.43
2019-02-11T14:14:37.511Z,32.43
2019-02-11T14:15:37.525Z,32.73
2019-02-11T14:16:37.488Z,32.83
2019-02-11T14:17:37.496Z,32.73
2019-02-11T14:18:37.504Z,32.83
2019-02-11T14:19:37.486Z,32.83
2019-02-11T14:20:37.436Z,32.83
2019-02-11T14:21:37.638Z,32.43
2019-02-11T14:22:37.434Z,32.43
2019-02-11T14:23:37.429Z,32.33
2019-02-11T14:24:37.436Z,32.62
2019-02-11T14:25:43.645Z,32.62
2019-02-11T14:26:59.661Z,32.13
2019-02-11T14:27:59.634Z,32.43
2019-02-11T14:28:59.638Z,32.43
2019-02-11T14:29:59.608Z,32.43
2019-02-11T14:30:59.596Z,32.43
2019-02-11T14:31:59.669Z,32.43
2019-02-11T14:32:59.586Z,32.53
2019-02-11T14:33:59.559Z,32.33
2019-02-11T14:34:59.584Z,32.33
2019-02-11T14:35:59.542Z,32.53
2019-02-11T14:36:59.529Z,32.43
2019-02-11T14:38:02.496Z,32.31
2019-02-11T14:38:59.509Z,32.43
2019-02-11T14:39:59.485Z,32.81
2019-02-11T14:40:59.479Z,32.62
2019-02-11T14:41:59.492Z,32.43
2019-02-11T14:42:59.519Z,32.01
2019-02-11T14:43:59.472Z,32.81
2019-02-11T14:44:59.473Z,32.71
2019-02-11T14:45:59.432Z,32.03
2019-02-11T14:46:59.422Z,31.71
2019-02-11T14:47:59.398Z,31.92
2019-02-11T14:48:59.414Z,32.22
2019-02-11T14:49:59.376Z,32.81
2019-02-11T14:50:59.357Z,32.91
2019-02-11T14:51:59.356Z,32.41
2019-02-11T14:52:59.337Z,32.41
2019-02-11T14:53:59.336Z,32.51
2019-02-11T14:54:59.325Z,32.43
2019-02-11T14:55:59.323Z,32.43
2019-02-11T14:56:59.292Z,32.23
2019-02-11T14:57:59.276Z,32.13
2019-02-11T14:58:59.288Z,32.13
2019-02-11T14:59:59.273Z,33.33
2019-02-11T15:00:59.259Z,33.23
2019-02-11T15:01:59.240Z,33.23
2019-02-11T15:02:59.327Z,33.23
2019-02-11T15:03:59.274Z,33.03
2019-02-11T15:04:59.207Z,33.33
2019-02-11T15:05:59.190Z,33.23
2019-02-11T15:06:59.181Z,33.03
2019-02-11T15:07:59.172Z,33.53
2019-02-11T15:08:59.160Z,33.03
2019-02-11T15:09:59.150Z,33.31
2019-02-11T15:10:59.134Z,33.41
2019-02-11T15:11:59.262Z,33.31
2019-02-11T15:12:59.110Z,33.23
2019-02-11T15:13:59.107Z,33.41
2019-02-11T15:14:59.098Z,33.51
2019-02-11T15:15:59.141Z,33.41
2019-02-11T15:16:59.070Z,33.23
2019-02-11T15:17:59.273Z,33.51
2019-02-11T15:18:59.075Z,33.42
2019-02-11T15:19:59.043Z,33.71
2019-02-11T15:20:59.237Z,33.63
2019-02-11T15:21:59.008Z,33.71
2019-02-11T15:22:59.016Z,33.81
2019-02-11T15:23:58.992Z,33.51
2019-02-11T15:24:58.973Z,33.41
2019-02-11T15:25:59.041Z,33.41
2019-02-11T15:26:58.967Z,33.51
2019-02-11T15:27:58.947Z,33.41
2019-02-11T15:28:58.934Z,33.31
2019-02-11T15:29:58.927Z,33.23
2019-02-11T15:30:58.902Z,33.31
2019-02-11T15:31:58.893Z,33.31
2019-02-11T15:32:58.890Z,33.01
2019-02-11T15:33:58.875Z,33.51
2019-02-11T15:34:58.868Z,33.31
2019-02-11T15:35:58.852Z,33.51
2019-02-11T15:36:58.858Z,33.61
2019-02-11T15:37:58.997Z,33.63
2019-02-11T15:38:58.839Z,33.31
2019-02-11T15:39:58.860Z,33.21
2019-02-11T15:40:58.798Z,33.03
2019-02-11T15:41:58.776Z,33.01
2019-02-11T15:42:58.766Z,33.03
2019-02-11T15:43:58.756Z,33.41
2019-02-11T15:44:58.761Z,33.21
2019-02-11T15:45:58.754Z,33.42
2019-02-11T15:46:58.726Z,33.01
2019-02-11T15:47:58.731Z,33.53
2019-02-11T15:48:58.742Z,33.53
2019-02-11T15:49:58.692Z,33.51
2019-02-11T15:50:58.674Z,33.51
2019-02-11T15:51:58.665Z,33.42
2019-02-11T15:52:59.046Z,33.03
2019-02-11T15:53:58.646Z,33.53
2019-02-11T15:54:58.629Z,33.51
2019-02-11T15:55:58.627Z,33.42
2019-02-11T15:56:58.629Z,33.53
2019-02-11T15:57:58.599Z,33.23
2019-02-11T15:58:58.597Z,33.53
2019-02-11T15:59:58.580Z,33.63
2019-02-11T16:00:58.580Z,33.53
2019-02-11T16:01:58.555Z,33.42
2019-02-11T16:02:58.540Z,33.53
2019-02-11T16:03:59.888Z,33.53
2019-02-11T16:05:02.207Z,33.72
2019-02-11T16:06:00.055Z,33.72
2019-02-11T16:07:20.651Z,33.83
2019-02-11T16:08:20.624Z,33.53
2019-02-11T16:09:20.611Z,33.23
2019-02-11T16:10:20.598Z,33.53
2019-02-11T16:11:20.578Z,33.53
2019-02-11T16:12:20.580Z,32.93
2019-02-11T16:13:20.551Z,33.03
2019-02-11T16:14:20.540Z,32.93
2019-02-11T16:15:20.533Z,33.12
2019-02-11T16:16:20.823Z,33.53
2019-02-11T16:17:20.522Z,33.42
2019-02-11T16:18:20.530Z,33.53
2019-02-11T16:19:20.496Z,33.42
2019-02-11T16:20:20.501Z,33.23
2019-02-11T16:21:20.469Z,33.42
2019-02-11T16:22:20.482Z,33.23
2019-02-11T16:23:20.451Z,33.53
2019-02-11T16:24:20.437Z,33.12
2019-02-11T16:25:20.422Z,33.72
2019-02-11T16:35:20.324Z,33.33
2019-02-11T16:36:20.306Z,33.63
2019-02-11T16:39:20.283Z,33.63
2019-02-11T16:43:20.232Z,33.53
2019-02-11T16:44:20.221Z,33.53
2019-02-11T16:48:20.307Z,33.54
2019-02-11T16:54:20.147Z,33.23
